createdAt,value
2023-12-02T00:01:28.660Z,8.27
2023-12-02T00:03:56.194Z,8.68
2023-12-02T00:06:23.603Z,9.63
2023-12-02T00:08:50.883Z,9.18
2023-12-02T00:11:18.424Z,8.70
2023-12-02T00:13:45.751Z,7.87
2023-12-02T00:16:13.139Z,8.75
2023-12-02T00:18:41.067Z,8.63
2023-12-02T00:21:08.620Z,8.45
2023-12-02T00:23:35.892Z,6.72
2023-12-02T00:26:03.565Z,7.53
2023-12-02T00:28:30.789Z,7.53
2023-12-02T00:30:58.076Z,7.55
2023-12-02T00:33:25.440Z,7.85
2023-12-02T00:35:52.876Z,8.02
2023-12-02T00:38:20.141Z,7.67
2023-12-02T00:40:47.481Z,7.72
2023-12-02T00:43:14.790Z,8.93
2023-12-02T00:45:42.138Z,7.93
2023-12-02T00:48:09.547Z,9.40
2023-12-02T00:50:36.938Z,9.33
2023-12-02T00:53:04.252Z,8.98
2023-12-02T00:55:31.680Z,9.18
2023-12-02T00:57:58.946Z,8.85
2023-12-02T01:00:26.363Z,7.68
2023-12-02T01:02:54.047Z,8.97
2023-12-02T01:05:21.656Z,8.15
2023-12-02T01:07:48.926Z,7.30
2023-12-02T01:10:16.873Z,8.05
2023-12-02T01:12:44.386Z,7.78
2023-12-02T01:15:11.853Z,8.37
2023-12-02T01:17:39.226Z,8.20
2023-12-02T01:20:07.208Z,10.00
2023-12-02T01:22:34.583Z,7.80
2023-12-02T01:25:02.522Z,7.32
2023-12-02T01:27:29.782Z,7.80
2023-12-02T01:29:57.129Z,7.68
2023-12-02T01:32:24.435Z,8.15
2023-12-02T01:34:51.811Z,7.10
2023-12-02T01:37:19.048Z,8.15
2023-12-02T01:39:46.427Z,7.33
2023-12-02T01:42:13.723Z,7.97
2023-12-02T01:44:41.240Z,9.07
2023-12-02T01:47:08.554Z,8.25
2023-12-02T01:49:35.916Z,8.23
2023-12-02T01:52:03.264Z,8.10
2023-12-02T01:54:30.939Z,7.38
2023-12-02T01:56:58.296Z,7.45
2023-12-02T01:59:31.335Z,8.82
2023-12-02T02:02:02.144Z,8.23
2023-12-02T02:04:29.699Z,8.60
2023-12-02T02:06:57.089Z,7.93
2023-12-02T02:09:24.573Z,7.45
2023-12-02T02:11:51.877Z,6.63
2023-12-02T02:14:19.273Z,7.38
2023-12-02T02:16:46.570Z,7.10
2023-12-02T02:19:14.009Z,6.63
2023-12-02T02:21:41.403Z,6.95
2023-12-02T02:24:08.881Z,6.72
2023-12-02T02:26:36.195Z,6.90
2023-12-02T02:29:03.718Z,9.07
2023-12-02T02:31:31.025Z,7.65
2023-12-02T02:33:58.392Z,7.68
2023-12-02T02:36:25.722Z,9.30
2023-12-02T02:38:53.106Z,8.45
2023-12-02T02:41:20.382Z,7.97
2023-12-02T02:43:47.771Z,8.52
2023-12-02T02:46:15.374Z,7.57
2023-12-02T02:48:43.168Z,8.63
2023-12-02T02:51:10.622Z,7.68
2023-12-02T02:53:38.007Z,7.67
2023-12-02T02:56:05.742Z,7.80
2023-12-02T02:58:35.423Z,9.80
2023-12-02T03:01:02.700Z,8.65
2023-12-02T03:03:30.191Z,9.13
2023-12-02T03:05:57.661Z,8.80
2023-12-02T03:08:25.026Z,8.23
2023-12-02T03:10:52.297Z,9.07
2023-12-02T03:13:19.680Z,7.93
2023-12-02T03:15:46.920Z,6.97
2023-12-02T03:18:14.554Z,8.13
2023-12-02T03:20:42.048Z,9.13
2023-12-02T03:23:09.531Z,8.55
2023-12-02T03:25:36.840Z,8.75
2023-12-02T03:28:04.241Z,8.95
2023-12-02T03:30:31.519Z,9.97
2023-12-02T03:32:58.945Z,9.57
2023-12-02T03:35:26.752Z,8.63
2023-12-02T03:37:54.086Z,8.10
2023-12-02T03:40:21.376Z,9.27
2023-12-02T03:42:48.744Z,10.83
2023-12-02T03:45:17.085Z,10.15
2023-12-02T03:47:44.655Z,11.15
2023-12-02T03:50:12.729Z,10.00
2023-12-02T03:52:40.856Z,10.07
2023-12-02T03:55:08.559Z,11.13
2023-12-02T03:57:35.988Z,10.85
2023-12-02T04:00:12.283Z,11.10
2023-12-02T04:02:40.218Z,11.80
2023-12-02T04:05:09.447Z,10.55
2023-12-02T04:07:37.794Z,11.70
2023-12-02T04:10:05.591Z,10.27
2023-12-02T04:12:33.386Z,15.85
2023-12-02T04:15:02.495Z,17.33
2023-12-02T04:17:30.416Z,12.23
2023-12-02T04:19:58.279Z,13.40
2023-12-02T04:22:25.992Z,13.77
2023-12-02T04:24:53.281Z,13.13
2023-12-02T04:27:20.721Z,13.30
2023-12-02T04:29:48.326Z,17.95
2023-12-02T04:32:15.711Z,14.53
2023-12-02T04:34:43.089Z,14.00
2023-12-02T04:37:10.470Z,14.43
2023-12-02T04:39:37.744Z,16.80
2023-12-02T04:42:06.163Z,16.70
2023-12-02T04:44:33.871Z,17.17
2023-12-02T04:47:01.237Z,14.65
2023-12-02T04:49:28.509Z,17.73
2023-12-02T04:51:55.798Z,20.88
2023-12-02T04:54:23.117Z,21.92
2023-12-02T04:56:50.536Z,18.87
2023-12-02T04:59:18.040Z,18.50
2023-12-02T05:01:45.439Z,19.17
2023-12-02T05:04:12.796Z,21.35
2023-12-02T05:06:40.821Z,22.85
2023-12-02T05:09:09.364Z,16.60
2023-12-02T05:11:38.308Z,17.30
2023-12-02T05:14:05.553Z,19.83
2023-12-02T05:16:33.022Z,17.95
2023-12-02T05:19:00.362Z,23.05
2023-12-02T05:21:27.918Z,18.67
2023-12-02T05:23:55.287Z,18.63
2023-12-02T05:26:22.716Z,18.48
2023-12-02T05:28:50.003Z,16.13
2023-12-02T05:31:20.304Z,16.65
2023-12-02T05:33:48.242Z,17.97
2023-12-02T05:36:15.542Z,17.08
2023-12-02T05:38:42.839Z,16.42
2023-12-02T05:41:10.068Z,15.95
2023-12-02T05:43:37.373Z,14.23
2023-12-02T05:46:05.242Z,17.20
2023-12-02T05:48:32.726Z,17.98
2023-12-02T05:51:02.170Z,16.77
2023-12-02T05:53:29.604Z,14.27
2023-12-02T05:55:56.854Z,16.83
2023-12-02T05:58:25.995Z,15.03
2023-12-02T06:00:53.331Z,13.73
2023-12-02T06:03:20.752Z,12.80
2023-12-02T06:05:48.006Z,17.20
2023-12-02T06:08:15.448Z,14.07
2023-12-02T06:10:42.712Z,13.87
2023-12-02T06:13:10.052Z,14.65
2023-12-02T06:15:37.399Z,12.43
2023-12-02T06:18:05.034Z,15.05
2023-12-02T06:20:32.416Z,16.05
2023-12-02T06:22:59.791Z,14.80
2023-12-02T06:25:27.048Z,15.05
2023-12-02T06:27:55.051Z,17.15
2023-12-02T06:30:22.345Z,18.08
2023-12-02T06:32:49.742Z,14.48
2023-12-02T06:35:17.083Z,15.10
2023-12-02T06:37:45.118Z,16.27
2023-12-02T06:40:12.967Z,17.00
2023-12-02T06:42:40.604Z,14.52
2023-12-02T06:45:08.513Z,15.10
2023-12-02T06:47:35.954Z,13.50
2023-12-02T06:50:04.930Z,14.25
2023-12-02T06:52:32.244Z,14.40
2023-12-02T06:57:30.064Z,16.30
2023-12-02T06:59:57.517Z,15.53
2023-12-02T07:02:25.060Z,15.65
2023-12-02T07:04:53.022Z,14.80
2023-12-02T07:07:20.339Z,15.57
2023-12-02T07:09:47.611Z,15.55
2023-12-02T07:12:15.056Z,14.10
2023-12-02T07:14:42.384Z,16.17
2023-12-02T07:17:09.723Z,14.60
2023-12-02T07:19:37.875Z,13.52
2023-12-02T07:22:05.455Z,15.15
2023-12-02T07:24:32.748Z,14.63
2023-12-02T07:27:00.247Z,16.77
2023-12-02T07:31:57.818Z,18.48
2023-12-02T07:34:25.051Z,16.13
2023-12-02T07:36:52.372Z,14.67
2023-12-02T07:39:19.632Z,13.77
2023-12-02T07:41:47.146Z,16.98
2023-12-02T07:44:14.507Z,15.85
2023-12-02T07:46:41.899Z,10.77
2023-12-02T07:49:09.181Z,15.43
2023-12-02T07:51:36.560Z,13.25
2023-12-02T07:54:04.101Z,13.82
2023-12-02T07:56:31.466Z,14.77
2023-12-02T07:58:58.827Z,13.93
2023-12-02T08:01:26.298Z,13.60
2023-12-02T08:03:53.655Z,16.27
2023-12-02T08:06:21.086Z,12.88
2023-12-02T08:08:48.673Z,13.23
2023-12-02T08:11:16.997Z,11.60
2023-12-02T08:13:45.625Z,10.70
2023-12-02T08:16:13.034Z,11.68
2023-12-02T08:18:40.348Z,10.85
2023-12-02T08:21:08.269Z,13.88
2023-12-02T08:23:35.952Z,11.48
2023-12-02T08:26:03.455Z,13.07
2023-12-02T08:28:30.823Z,11.40
2023-12-02T08:30:58.349Z,11.52
2023-12-02T08:33:25.674Z,11.38
2023-12-02T08:35:53.160Z,11.50
2023-12-02T08:38:20.497Z,11.87
2023-12-02T08:40:50.382Z,12.35
2023-12-02T08:43:17.785Z,14.40
2023-12-02T08:45:45.194Z,10.77
2023-12-02T08:48:12.591Z,13.35
2023-12-02T08:50:39.932Z,13.27
2023-12-02T08:53:07.313Z,13.50
2023-12-02T08:55:34.847Z,13.60
2023-12-02T08:58:02.337Z,14.35
2023-12-02T09:00:31.076Z,7.60
2023-12-02T09:02:58.359Z,13.43
2023-12-02T09:05:25.714Z,14.05
2023-12-02T09:07:53.057Z,13.13
2023-12-02T09:10:20.601Z,14.45
2023-12-02T09:12:47.897Z,15.48
2023-12-02T09:15:18.487Z,16.43
2023-12-02T09:18:08.160Z,15.40
2023-12-02T09:20:48.260Z,13.82
2023-12-02T09:23:17.366Z,17.08
2023-12-02T09:25:45.268Z,16.73
2023-12-02T09:28:17.136Z,15.63
2023-12-02T09:31:06.641Z,14.13
2023-12-02T09:33:37.356Z,13.38
2023-12-02T09:36:05.583Z,15.23
2023-12-02T09:38:33.224Z,16.85
2023-12-02T09:41:25.355Z,15.27
2023-12-02T09:44:00.295Z,12.98
2023-12-02T09:46:30.011Z,13.85
2023-12-02T09:49:23.056Z,17.08
2023-12-02T09:52:08.874Z,15.40
2023-12-02T09:54:58.650Z,16.57
2023-12-02T09:57:38.557Z,15.00
2023-12-02T10:00:16.759Z,11.40
2023-12-02T10:03:19.817Z,15.07
2023-12-02T10:05:59.341Z,14.13
2023-12-02T10:08:30.634Z,15.87
2023-12-02T10:11:27.472Z,17.42
2023-12-02T10:13:58.670Z,14.50
2023-12-02T10:16:26.154Z,13.80
2023-12-02T10:18:54.703Z,13.15
2023-12-02T10:21:22.544Z,14.53
2023-12-02T10:23:59.285Z,14.73
2023-12-02T10:26:30.654Z,14.98
2023-12-02T10:29:17.484Z,18.73
2023-12-02T10:32:12.231Z,15.48
2023-12-02T10:34:43.496Z,13.30
2023-12-02T10:37:11.285Z,11.80
2023-12-02T10:39:47.735Z,17.90
2023-12-02T10:42:28.178Z,16.80
2023-12-02T10:45:05.877Z,15.77
2023-12-02T10:47:33.579Z,16.87
2023-12-02T10:50:01.090Z,15.48
2023-12-02T10:55:00.321Z,16.88
2023-12-02T10:57:27.791Z,14.23
2023-12-02T11:00:04.325Z,16.90
2023-12-02T11:02:33.041Z,16.10
2023-12-02T11:05:22.958Z,16.20
2023-12-02T11:07:57.262Z,12.65
2023-12-02T11:10:43.035Z,14.80
2023-12-02T11:13:19.454Z,18.47
2023-12-02T11:16:21.333Z,9.20
2023-12-02T11:18:57.845Z,18.25
2023-12-02T11:21:37.528Z,15.48
2023-12-02T11:24:12.042Z,16.48
2023-12-02T11:26:53.714Z,13.23
2023-12-02T11:30:01.350Z,16.15
2023-12-02T11:32:51.605Z,18.42
2023-12-02T11:35:20.306Z,19.38
2023-12-02T11:37:50.476Z,19.92
2023-12-02T11:40:29.722Z,15.47
2023-12-02T11:43:02.047Z,17.23
2023-12-02T11:45:39.677Z,17.33
2023-12-02T11:48:16.498Z,19.95
2023-12-02T11:50:49.794Z,21.42
2023-12-02T11:53:26.218Z,14.80
2023-12-02T11:56:12.404Z,13.93
2023-12-02T11:59:03.936Z,16.60
2023-12-02T12:01:58.832Z,18.13
2023-12-02T12:04:37.846Z,17.98
2023-12-02T12:07:42.735Z,17.43
2023-12-02T12:10:21.962Z,20.35
2023-12-02T12:12:49.365Z,23.80
2023-12-02T12:15:16.832Z,21.40
2023-12-02T12:17:44.398Z,20.05
2023-12-02T12:20:25.375Z,20.07
2023-12-02T12:22:52.931Z,17.92
2023-12-02T12:25:21.154Z,19.45
2023-12-02T12:27:50.114Z,20.80
2023-12-02T12:30:17.422Z,21.58
2023-12-02T12:32:44.923Z,22.60
2023-12-02T12:35:13.650Z,20.83
2023-12-02T12:37:41.478Z,22.17
2023-12-02T12:40:10.603Z,21.17
2023-12-02T12:42:49.118Z,20.85
2023-12-02T12:45:17.069Z,18.20
2023-12-02T12:47:44.727Z,17.33
2023-12-02T12:50:13.940Z,18.85
2023-12-02T12:52:51.881Z,20.70
2023-12-02T12:55:25.862Z,19.15
2023-12-02T12:57:59.879Z,17.47
2023-12-02T13:00:29.448Z,17.85
2023-12-02T13:03:19.951Z,18.90
2023-12-02T13:05:52.517Z,17.25
2023-12-02T13:08:30.565Z,21.92
2023-12-02T13:11:00.118Z,16.80
2023-12-02T13:13:27.427Z,19.10
2023-12-02T13:15:54.707Z,8.95
2023-12-02T13:18:22.162Z,15.88
2023-12-02T13:20:50.486Z,19.58
2023-12-02T13:23:21.858Z,17.63
2023-12-02T13:25:49.211Z,18.00
2023-12-02T13:28:27.315Z,19.05
2023-12-02T13:30:55.976Z,15.35
2023-12-02T13:33:36.227Z,18.98
2023-12-02T13:36:16.170Z,14.20
2023-12-02T13:39:00.480Z,14.80
2023-12-02T13:41:47.389Z,14.60
2023-12-02T13:44:18.541Z,12.55
2023-12-02T13:47:06.251Z,14.93
2023-12-02T13:49:45.619Z,16.47
2023-12-02T13:52:26.706Z,14.32
2023-12-02T13:55:04.679Z,15.02
2023-12-02T13:57:35.667Z,13.75
2023-12-02T14:00:10.331Z,13.27
2023-12-02T14:02:43.208Z,12.00
2023-12-02T14:05:15.684Z,12.52
2023-12-02T14:07:49.741Z,13.43
2023-12-02T14:10:21.332Z,13.40
2023-12-02T14:12:51.714Z,12.88
2023-12-02T14:15:54.160Z,10.90
2023-12-02T14:18:40.350Z,11.82
2023-12-02T14:21:20.346Z,10.40
2023-12-02T14:24:20.444Z,10.55
2023-12-02T14:27:07.065Z,10.25
2023-12-02T14:29:48.890Z,10.80
2023-12-02T14:32:19.282Z,11.68
2023-12-02T14:35:22.065Z,9.20
2023-12-02T14:38:17.482Z,9.57
2023-12-02T14:41:05.917Z,11.02
2023-12-02T14:44:09.386Z,9.23
2023-12-02T14:46:36.742Z,9.18
2023-12-02T14:49:04.121Z,11.32
2023-12-02T14:51:34.202Z,10.15
2023-12-02T14:54:03.832Z,12.45
2023-12-02T14:56:31.118Z,12.63
2023-12-02T14:59:01.637Z,10.43
2023-12-02T15:01:42.684Z,11.95
2023-12-02T15:04:10.555Z,11.35
2023-12-02T15:06:41.148Z,10.55
2023-12-02T15:09:08.642Z,10.23
2023-12-02T15:11:37.171Z,12.13
2023-12-02T15:14:04.813Z,11.32
2023-12-02T15:16:32.201Z,9.40
2023-12-02T15:19:07.332Z,12.25
2023-12-02T15:21:34.778Z,10.07
2023-12-02T15:24:02.110Z,13.07
2023-12-02T15:26:29.527Z,10.80
2023-12-02T15:28:57.904Z,12.27
2023-12-02T15:31:27.207Z,10.90
2023-12-02T15:33:58.272Z,13.83
2023-12-02T15:36:26.900Z,10.30
2023-12-02T15:38:55.059Z,11.32
2023-12-02T15:41:24.356Z,12.75
2023-12-02T15:43:56.270Z,12.45
2023-12-02T15:46:23.919Z,12.00
2023-12-02T15:48:51.346Z,13.32
2023-12-02T15:51:20.608Z,12.55
2023-12-02T15:53:48.710Z,16.02
2023-12-02T15:56:18.189Z,12.27
2023-12-02T15:58:45.762Z,15.63
2023-12-02T16:01:17.543Z,15.40
2023-12-02T16:03:45.273Z,12.57
2023-12-02T16:06:15.802Z,17.27
2023-12-02T16:08:43.400Z,11.23
2023-12-02T16:11:10.869Z,11.77
2023-12-02T16:13:42.460Z,11.32
2023-12-02T16:16:18.403Z,11.35
2023-12-02T16:18:46.964Z,12.45
2023-12-02T16:21:15.444Z,10.68
2023-12-02T16:23:46.108Z,9.90
2023-12-02T16:26:17.750Z,11.85
2023-12-02T16:28:45.728Z,10.68
2023-12-02T16:31:13.484Z,10.90
2023-12-02T16:33:42.591Z,11.52
2023-12-02T16:36:10.227Z,9.27
2023-12-02T16:38:39.821Z,9.05
2023-12-02T16:41:08.229Z,10.52
2023-12-02T16:43:35.819Z,10.43
2023-12-02T16:46:06.746Z,12.40
2023-12-02T16:48:35.593Z,12.63
2023-12-02T16:51:03.893Z,12.63
2023-12-02T16:53:31.385Z,12.95
2023-12-02T16:56:06.115Z,13.73
2023-12-02T16:58:42.495Z,13.85
2023-12-02T17:01:09.874Z,9.77
2023-12-02T17:03:38.197Z,10.63
2023-12-02T17:06:12.290Z,11.70
2023-12-02T17:08:46.557Z,11.20
2023-12-02T17:11:18.556Z,10.93
2023-12-02T17:14:06.939Z,11.80
2023-12-02T17:16:34.461Z,9.60
2023-12-02T17:19:08.450Z,10.20
2023-12-02T17:21:45.405Z,10.60
2023-12-02T17:24:39.546Z,10.27
2023-12-02T17:27:09.184Z,9.70
2023-12-02T17:29:37.904Z,12.05
2023-12-02T17:32:05.586Z,9.93
2023-12-02T17:34:33.059Z,9.60
2023-12-02T17:37:00.559Z,9.05
2023-12-02T17:39:27.963Z,12.07
2023-12-02T17:41:55.433Z,10.32
2023-12-02T17:44:23.535Z,10.45
2023-12-02T17:46:53.632Z,11.98
2023-12-02T17:49:21.385Z,10.70
2023-12-02T17:51:48.900Z,12.03
2023-12-02T17:54:16.310Z,10.00
2023-12-02T17:56:43.692Z,11.88
2023-12-02T17:59:12.455Z,10.30
2023-12-02T18:01:39.894Z,9.88
2023-12-02T18:04:07.342Z,10.37
2023-12-02T18:06:36.069Z,10.25
2023-12-02T18:09:03.812Z,9.98
2023-12-02T18:11:31.126Z,10.02
2023-12-02T18:13:58.638Z,12.25
2023-12-02T18:16:26.038Z,10.43
2023-12-02T18:18:56.785Z,11.38
2023-12-02T18:21:25.428Z,11.68
2023-12-02T18:23:58.522Z,8.77
2023-12-02T18:26:26.187Z,9.43
2023-12-02T18:28:53.483Z,9.83
2023-12-02T18:31:20.940Z,10.57
2023-12-02T18:33:48.520Z,8.75
2023-12-02T18:36:16.301Z,9.20
2023-12-02T18:38:43.717Z,9.77
2023-12-02T18:41:11.303Z,8.57
2023-12-02T18:43:39.739Z,10.18
2023-12-02T18:46:07.458Z,8.27
2023-12-02T18:48:34.878Z,9.25
2023-12-02T18:51:02.355Z,9.82
2023-12-02T18:53:29.725Z,10.57
2023-12-02T18:55:57.116Z,10.13
2023-12-02T18:58:25.623Z,9.30
2023-12-02T19:00:53.119Z,9.02
2023-12-02T19:03:20.574Z,10.70
2023-12-02T19:05:47.975Z,10.63
2023-12-02T19:08:15.324Z,8.60
2023-12-02T19:10:42.792Z,8.88
2023-12-02T19:13:10.073Z,10.45
2023-12-02T19:15:37.731Z,9.48
2023-12-02T19:18:05.202Z,11.20
2023-12-02T19:20:32.658Z,9.48
2023-12-02T19:23:00.023Z,10.00
2023-12-02T19:25:27.425Z,12.85
2023-12-02T19:27:54.735Z,10.30
2023-12-02T19:30:22.368Z,11.10
2023-12-02T19:32:49.892Z,8.55
2023-12-02T19:35:17.340Z,7.68
2023-12-02T19:37:44.692Z,9.27
2023-12-02T19:40:13.340Z,9.00
2023-12-02T19:42:42.613Z,8.80
2023-12-02T19:45:10.480Z,8.60
2023-12-02T19:47:37.890Z,10.48
2023-12-02T19:50:05.498Z,8.63
2023-12-02T19:52:32.865Z,9.00
2023-12-02T19:55:00.301Z,8.10
2023-12-02T19:57:27.650Z,8.95
2023-12-02T19:59:55.164Z,9.68
2023-12-02T20:02:22.501Z,8.25
2023-12-02T20:04:49.914Z,8.52
2023-12-02T20:07:17.593Z,9.13
2023-12-02T20:09:45.195Z,9.20
2023-12-02T20:12:12.755Z,10.30
2023-12-02T20:14:40.166Z,8.02
2023-12-02T20:17:07.658Z,9.52
2023-12-02T20:19:35.225Z,9.07
2023-12-02T20:22:02.554Z,10.55
2023-12-02T20:24:30.036Z,8.82
2023-12-02T20:26:57.411Z,8.77
2023-12-02T20:29:25.197Z,9.48
2023-12-02T20:31:52.731Z,9.13
2023-12-02T20:34:20.185Z,9.30
2023-12-02T20:36:47.551Z,10.57
2023-12-02T20:39:14.933Z,7.60
2023-12-02T20:41:42.673Z,8.70
2023-12-02T20:44:10.082Z,8.47
2023-12-02T20:46:37.764Z,6.90
2023-12-02T20:49:05.133Z,7.70
2023-12-02T20:51:32.631Z,8.02
2023-12-02T20:54:00.066Z,8.82
2023-12-02T20:56:27.423Z,8.33
2023-12-02T20:58:54.822Z,6.28
2023-12-02T21:01:22.067Z,7.75
2023-12-02T21:03:49.442Z,6.28
2023-12-02T21:06:16.955Z,8.23
2023-12-02T21:08:45.117Z,7.43
2023-12-02T21:11:12.387Z,7.45
2023-12-02T21:13:39.849Z,7.47
2023-12-02T21:16:07.666Z,6.75
2023-12-02T21:18:35.573Z,6.85
2023-12-02T21:21:03.217Z,8.03
2023-12-02T21:23:30.605Z,8.82
2023-12-02T21:25:57.993Z,6.88
2023-12-02T21:28:25.386Z,5.85
2023-12-02T21:30:52.741Z,7.95
2023-12-02T21:33:20.170Z,7.17
2023-12-02T21:35:54.996Z,7.00
2023-12-02T21:38:43.442Z,7.28
2023-12-02T21:41:12.671Z,6.60
2023-12-02T21:43:40.362Z,6.93
2023-12-02T21:46:09.109Z,6.73
2023-12-02T21:48:44.898Z,8.35
2023-12-02T21:51:43.356Z,8.30
2023-12-02T21:54:20.538Z,9.30
2023-12-02T21:56:49.424Z,8.05
2023-12-02T21:59:22.435Z,7.43
2023-12-02T22:01:56.950Z,7.53
2023-12-02T22:04:44.140Z,8.00
2023-12-02T22:07:13.571Z,8.60
2023-12-02T22:09:41.087Z,7.30
2023-12-02T22:12:27.461Z,7.37
2023-12-02T22:14:57.515Z,6.97
2023-12-02T22:17:24.874Z,7.35
2023-12-02T22:19:53.381Z,6.45
2023-12-02T22:22:48.571Z,7.65
2023-12-02T22:25:19.723Z,9.50
2023-12-02T22:27:47.098Z,6.85
2023-12-02T22:30:24.016Z,8.75
2023-12-02T22:32:59.635Z,7.32
2023-12-02T22:35:39.853Z,6.57
2023-12-02T22:38:19.158Z,7.17
2023-12-02T22:40:47.361Z,8.40
2023-12-02T22:43:22.288Z,7.25
2023-12-02T22:45:50.269Z,8.30
2023-12-02T22:48:39.239Z,7.68
2023-12-02T22:51:08.348Z,9.43
2023-12-02T22:53:39.747Z,7.60
2023-12-02T22:56:09.387Z,6.13
2023-12-02T22:58:44.433Z,10.38
2023-12-02T23:01:27.464Z,10.95
2023-12-02T23:03:54.933Z,7.50
2023-12-02T23:06:29.867Z,7.22
2023-12-02T23:08:57.875Z,7.15
2023-12-02T23:11:48.865Z,8.52
2023-12-02T23:14:41.146Z,10.40
2023-12-02T23:17:21.365Z,7.87
2023-12-02T23:19:48.772Z,7.68
2023-12-02T23:22:16.123Z,8.27
2023-12-02T23:24:43.572Z,11.15
2023-12-02T23:27:16.313Z,8.07
2023-12-02T23:29:43.674Z,9.60
2023-12-02T23:32:10.862Z,10.65
2023-12-02T23:34:38.342Z,9.73
2023-12-02T23:37:05.731Z,7.53
2023-12-02T23:39:33.263Z,8.15
2023-12-02T23:42:01.228Z,9.40
2023-12-02T23:44:45.036Z,10.20
2023-12-02T23:47:17.189Z,9.70
2023-12-02T23:49:44.634Z,7.78
2023-12-02T23:52:11.966Z,8.52
2023-12-02T23:54:39.302Z,11.80
2023-12-02T23:57:06.906Z,10.88
2023-12-02T23:59:34.321Z,9.40
